Time;durP1;ratioP1;P1;durP2;ratioP2;P2;SDS_P1;SDS_P2;PMS_P1;PMS_P2;Temp;Humidity;BMP_temperature;BMP_pressure;BME280_temperature;BME280_humidity;BME280_pressure;Samples;Min_cycle;Max_cycle;Signal;HPM_P1;HPM_P2
2021/04/01 04:16:17;;;;;;;21.60;16.40;;;;;;;10.53;47.06;94586.08;828171;71;31758;-82
2021/04/01 04:31:14;;;;;;;31.02;22.25;;;;;;;10.30;49.18;94585.87;827493;71;31741;-78
2021/04/01 04:46:18;;;;;;;33.25;20.75;;;;;;;10.11;50.32;94606.00;828883;71;32168;-77
2021/04/01 05:16:08;;;;;;;31.20;22.07;;;;;;;9.71;52.49;94651.26;821826;71;28705;-75
2021/04/01 05:31:16;;;;;;;32.70;21.70;;;;;;;9.65;52.38;94653.17;827650;71;31719;-77
2021/04/01 05:46:23;;;;;;;31.82;21.70;;;;;;;9.49;52.42;94649.91;828601;71;30629;-78
2021/04/01 06:16:15;;;;;;;28.27;19.80;;;;;;;10.13;48.90;94671.51;827172;71;33311;-76
2021/04/01 06:31:27;;;;;;;20.02;14.15;;;;;;;10.91;45.57;94679.20;826845;71;32713;-76
2021/04/01 06:46:09;;;;;;;20.10;15.28;;;;;;;;;;827984;71;30419;-76
2021/04/01 07:01:26;;;;;;;22.17;15.23;;;;;;;13.25;44.28;94682.26;827840;71;32885;-77
2021/04/01 07:16:24;;;;;;;21.73;18.20;;;;;;;13.99;44.00;94690.47;827531;71;32805;-76
2021/04/01 07:46:33;;;;;;;16.42;14.38;;;;;;;16.92;39.99;94690.58;827011;71;32739;-76
2021/04/01 08:16:12;;;;;;;16.52;14.28;;;;;;;17.49;37.96;94703.78;807646;71;29938;-75
2021/04/01 09:16:30;;;;;;;10.75;9.55;;;;;;;18.82;33.34;94646.41;831524;71;32827;-76
2021/04/01 09:31:14;;;;;;;10.85;9.40;;;;;;;18.54;32.29;94633.79;828228;71;32536;-76
2021/04/01 09:46:14;;;;;;;12.50;9.70;;;;;;;20.36;31.09;94606.41;828724;71;31488;-77
2021/04/01 10:01:30;;;;;;;9.68;8.50;;;;;;;20.31;30.07;94597.91;827150;71;32702;-78
2021/04/01 10:16:31;;;;;;;8.05;7.30;;;;;;;21.75;26.43;94572.14;834873;71;32715;-78
2021/04/01 10:31:20;;;;;;;8.80;6.58;;;;;;;19.71;28.13;94562.88;833646;71;32715;-76
2021/04/01 10:46:20;;;;;;;8.98;8.08;;;;;;;22.16;28.95;94538.43;834206;71;32798;-76
2021/04/01 11:01:19;;;;;;;7.15;6.45;;;;;;;22.85;24.84;94524.05;816896;71;33200;-79
2021/04/01 11:16:11;;;;;;;6.70;6.10;;;;;;;22.12;23.78;94514.09;835216;71;29648;-78
2021/04/01 11:31:30;;;;;;;5.97;5.42;;;;;;;21.00;23.71;94491.52;827856;71;32768;-76
2021/04/01 11:46:29;;;;;;;6.58;5.90;;;;;;;21.54;24.32;94467.09;834028;71;32815;-76
2021/04/01 12:01:28;;;;;;;6.28;5.67;;;;;;;20.64;23.05;94462.88;828565;71;32719;-76
2021/04/01 12:16:23;;;;;;;6.72;5.60;;;;;;;19.36;24.08;94441.64;827320;71;32673;-77
2021/04/01 12:31:15;;;;;;;5.83;5.33;;;;;;;20.26;23.06;94424.41;827238;71;32743;-77
2021/04/01 15:01:40;;;;;;;5.70;4.83;;;;;;;17.80;22.91;94312.59;828015;71;30258;-74
2021/04/01 15:16:42;;;;;;;5.87;5.22;;;;;;;17.61;22.83;94311.09;828327;71;32646;-77
2021/04/01 15:31:15;;;;;;;7.28;5.87;;;;;;;17.33;23.56;94305.19;816462;71;32715;-77
2021/04/01 15:46:20;;;;;;;7.87;5.60;;;;;;;17.08;23.66;94294.42;828465;71;32756;-76
2021/04/01 16:01:16;;;;;;;5.75;5.22;;;;;;;16.98;23.67;94298.29;833611;71;32676;-77
2021/04/01 16:16:24;;;;;;;8.85;6.20;;;;;;;16.69;24.26;94298.71;812332;70;33686;-75
2021/04/01 16:31:17;;;;;;;8.45;6.40;;;;;;;16.28;25.26;94301.77;827191;71;33035;-77
2021/04/01 16:46:10;;;;;;;9.73;7.20;;;;;;;16.05;26.73;94305.88;828227;71;31269;-77
2021/04/01 17:01:22;;;;;;;11.38;7.53;;;;;;;15.41;28.43;94308.56;831699;71;33149;-84
2021/04/01 17:16:21;;;;;;;12.50;8.58;;;;;;;14.89;30.12;94302.28;828385;71;32780;-82
2021/04/01 17:31:15;;;;;;;11.12;8.00;;;;;;;14.56;30.27;94317.98;827563;71;33350;-82
2021/04/01 17:46:12;;;;;;;8.83;6.62;;;;;;;14.33;30.69;94311.56;834288;71;32420;-81
2021/04/01 18:01:27;;;;;;;24.27;12.15;;;;;;;13.98;31.45;94326.16;834190;71;32905;-83
2021/04/01 18:31:29;;;;;;;15.98;10.95;;;;;;;13.47;33.68;94333.02;834009;71;32710;-86
2021/04/01 19:01:53;;;;;;;17.67;11.00;;;;;;;12.88;35.12;94341.25;834273;71;33293;-86
2021/04/01 19:31:28;;;;;;;18.98;11.35;;;;;;;12.50;36.90;94321.98;834507;71;32872;-83
2021/04/01 19:46:10;;;;;;;24.15;12.33;;;;;;;12.35;38.40;94323.17;828896;71;30640;-78
2021/04/01 20:01:13;;;;;;;17.92;12.88;;;;;;;13.49;50.14;94319.53;828814;71;32041;-82
2021/04/01 20:16:15;;;;;;;21.17;14.78;;;;;;;13.37;40.38;94328.05;829026;71;32723;-80
2021/04/01 20:31:16;;;;;;;22.25;14.95;;;;;;;12.73;40.97;94325.34;827529;71;32729;-81
2021/04/01 20:46:09;;;;;;;21.02;16.05;;;;;;;12.35;41.12;94324.48;834149;71;29701;-82
2021/04/01 21:01:50;;;;;;;19.23;14.00;;;;;;;11.99;42.95;94326.68;833918;71;33301;-79
2021/04/01 21:16:14;;;;;;;19.65;14.30;;;;;;;11.78;43.74;94332.94;834331;71;32878;-80
2021/04/01 21:31:13;;;;;;;19.15;14.53;;;;;;;11.50;45.02;94334.12;828478;71;30239;-82
2021/04/01 21:46:08;;;;;;;19.80;13.40;;;;;;;11.15;47.04;94324.59;829725;71;29762;-81
2021/04/01 22:01:13;;;;;;;25.97;16.70;;;;;;;;;;835752;70;32652;-81
2021/04/01 22:16:18;;;;;;;18.60;14.15;;;;;;;10.71;48.47;161475.66;828083;71;32671;-81
2021/04/01 22:31:17;;;;;;;19.80;13.95;;;;;;;10.67;49.46;94307.45;814009;71;32823;-80
2021/04/01 22:46:13;;;;;;;19.70;13.35;;;;;;;10.45;50.02;94304.73;834186;71;32522;-81
2021/04/01 23:01:10;;;;;;;15.88;12.33;;;;;;;10.33;50.63;94303.90;827919;71;30440;-80
2021/04/01 23:16:16;;;;;;;16.52;13.40;;;;;;;10.15;51.09;94281.36;828599;71;33523;-81
2021/04/01 23:31:17;;;;;;;16.05;11.50;;;;;;;9.93;50.40;94271.52;828061;71;32835;-80
2021/04/01 23:46:12;;;;;;;14.28;11.78;;;;;;;9.75;50.49;94257.43;833980;71;31531;-78
